createdAt,value
2019-04-23T00:02:53.350Z,7.37
2019-04-23T00:07:22.618Z,7.50
2019-04-23T00:11:24.036Z,7.34
2019-04-23T00:15:25.221Z,7.19
2019-04-23T00:19:45.160Z,7.23
2019-04-23T00:23:53.350Z,7.21
2019-04-23T00:27:59.913Z,7.29
2019-04-23T00:32:15.451Z,7.26
2019-04-23T00:36:20.969Z,7.36
2019-04-23T00:40:37.553Z,7.23
2019-04-23T00:48:51.879Z,7.24
2019-04-23T00:53:01.962Z,7.30
2019-04-23T01:01:18.549Z,7.70
2019-04-23T01:05:29.663Z,7.67
2019-04-23T01:09:48.815Z,7.37
2019-04-23T01:13:49.603Z,7.34
2019-04-23T01:18:10.983Z,7.21
2019-04-23T01:21:53.362Z,7.18
2019-04-23T01:26:21.068Z,7.01
2019-04-23T01:30:38.757Z,6.81
2019-04-23T01:34:54.197Z,7.13
2019-04-23T01:39:03.897Z,6.96
2019-04-23T01:43:05.543Z,7.10
2019-04-23T01:47:17.272Z,6.94
2019-04-23T01:51:30.422Z,6.89
2019-04-23T01:55:38.425Z,7.10
2019-04-23T01:59:48.710Z,7.42
2019-04-23T02:04:07.189Z,7.32
2019-04-23T02:08:05.258Z,7.13
2019-04-23T02:12:20.520Z,7.00
2019-04-23T02:16:25.800Z,6.99
2019-04-23T02:20:36.258Z,6.73
2019-04-23T02:24:52.707Z,6.82
2019-04-23T02:29:06.758Z,6.85
2019-04-23T02:33:20.161Z,6.81
2019-04-23T02:37:35.663Z,6.96
2019-04-23T02:45:48.422Z,6.90
2019-04-23T02:49:55.354Z,6.80
2019-04-23T02:58:10.903Z,6.63
2019-04-23T03:02:37.270Z,6.45
2019-04-23T03:06:32.251Z,6.49
2019-04-23T03:10:41.984Z,6.36
2019-04-23T03:14:59.167Z,6.58
2019-04-23T03:19:21.899Z,6.82
2019-04-23T03:23:52.066Z,6.91
2019-04-23T03:27:37.306Z,7.09
2019-04-23T03:44:20.566Z,7.36
2019-04-23T03:48:37.708Z,7.31
2019-04-23T03:52:40.537Z,7.54
2019-04-23T03:57:03.258Z,7.84
2019-04-23T04:00:58.788Z,7.92
2019-04-23T04:05:10.777Z,7.78
2019-04-23T04:09:32.300Z,8.16
2019-04-23T04:13:31.581Z,8.24
2019-04-23T04:18:01.622Z,8.42
2019-04-23T04:21:49.946Z,8.61
2019-04-23T04:26:00.885Z,8.67
2019-04-23T04:30:12.429Z,8.85
2019-04-23T04:34:58.170Z,9.04
2019-04-23T04:42:37.056Z,9.28
2019-04-23T04:46:45.847Z,9.26
2019-04-23T04:51:00.456Z,9.12
2019-04-23T04:55:03.043Z,9.14
2019-04-23T05:03:24.001Z,9.29
2019-04-23T05:07:35.997Z,9.39
2019-04-23T05:12:01.589Z,9.65
2019-04-23T05:15:51.423Z,10.00
2019-04-23T05:28:28.505Z,10.43
2019-04-23T05:32:27.076Z,10.41
2019-04-23T05:44:57.211Z,11.03
2019-04-23T05:49:19.503Z,11.76
2019-04-23T05:53:33.474Z,11.54
2019-04-23T05:57:20.009Z,11.98
2019-04-23T06:05:49.720Z,11.48
2019-04-23T06:09:59.431Z,11.32
2019-04-23T06:14:17.409Z,11.30
2019-04-23T06:22:36.948Z,11.34
2019-04-23T06:26:54.282Z,11.38
2019-04-23T06:30:54.341Z,11.38
2019-04-23T06:34:51.192Z,11.88
2019-04-23T06:39:01.242Z,12.25
2019-04-23T06:43:47.554Z,12.77
2019-04-23T06:47:45.144Z,12.70
2019-04-23T06:56:13.548Z,13.17
2019-04-23T07:00:17.235Z,13.25
2019-04-23T07:04:29.036Z,13.37
2019-04-23T07:08:56.299Z,13.01
2019-04-23T07:12:47.221Z,13.58
2019-04-23T07:17:00.204Z,13.61
2019-04-23T07:21:15.437Z,13.54
2019-04-23T07:25:18.938Z,13.85
2019-04-23T07:33:43.958Z,13.83
2019-04-23T07:37:56.583Z,13.99
2019-04-23T07:42:29.580Z,14.28
2019-04-23T07:46:57.471Z,14.36
2019-04-23T07:55:13.768Z,14.27
2019-04-23T07:59:17.554Z,14.79
2019-04-23T08:03:22.643Z,15.04
2019-04-23T08:07:35.694Z,14.38
2019-04-23T08:11:39.940Z,14.67
2019-04-23T08:16:00.515Z,14.68
2019-04-23T08:20:06.539Z,15.01
2019-04-23T08:24:38.018Z,14.91
2019-04-23T08:32:57.589Z,14.23
2019-04-23T08:41:33.877Z,14.91
2019-04-23T08:45:35.410Z,15.42
2019-04-23T08:54:03.040Z,15.71
2019-04-23T08:58:13.389Z,15.57
2019-04-23T09:06:47.182Z,15.57
2019-04-23T09:10:41.036Z,15.45
2019-04-23T09:14:51.283Z,15.41
2019-04-23T09:19:02.655Z,15.19
2019-04-23T09:23:02.813Z,15.03
2019-04-23T09:27:23.487Z,15.25
2019-04-23T09:36:05.157Z,14.64
2019-04-23T09:40:54.894Z,14.65
2019-04-23T09:45:11.040Z,14.68
2019-04-23T09:49:20.813Z,15.33
2019-04-23T09:53:29.677Z,14.60
2019-04-23T09:57:44.683Z,15.75
2019-04-23T10:01:37.023Z,15.82
2019-04-23T10:05:39.993Z,16.24
2019-04-23T10:09:40.626Z,15.88
2019-04-23T10:13:50.333Z,15.95
2019-04-23T10:17:58.482Z,16.33
2019-04-23T10:22:07.201Z,16.84
2019-04-23T10:26:16.430Z,17.16
2019-04-23T10:30:24.412Z,17.14
2019-04-23T10:34:42.895Z,16.59
2019-04-23T10:38:54.030Z,16.21
2019-04-23T10:42:53.902Z,16.54
2019-04-23T10:47:45.208Z,15.83
2019-04-23T10:56:18.519Z,15.67
2019-04-23T11:00:19.474Z,15.36
2019-04-23T11:04:38.577Z,16.12
2019-04-23T11:08:38.352Z,16.69
2019-04-23T11:13:01.217Z,16.70
2019-04-23T11:17:19.337Z,16.83
2019-04-23T11:21:28.567Z,16.35
2019-04-23T11:29:44.385Z,17.70
2019-04-23T11:34:13.210Z,17.15
2019-04-23T11:38:21.004Z,17.63
2019-04-23T11:42:11.535Z,18.31
2019-04-23T11:46:41.279Z,17.36
2019-04-23T11:51:07.460Z,17.12
2019-04-23T11:54:39.360Z,17.27
2019-04-23T11:58:47.605Z,16.56
2019-04-23T12:03:12.673Z,17.45
2019-04-23T12:07:33.937Z,17.26
2019-04-23T12:11:58.296Z,17.21
2019-04-23T12:16:04.046Z,16.83
2019-04-23T12:20:12.284Z,16.62
2019-04-23T12:28:30.590Z,16.33
2019-04-23T12:37:11.344Z,16.95
2019-04-23T12:41:13.986Z,15.94
2019-04-23T12:45:23.352Z,15.83
2019-04-23T12:49:53.357Z,15.24
2019-04-23T12:57:40.881Z,16.81
2019-04-23T13:01:55.917Z,16.98
2019-04-23T13:05:51.428Z,17.19
2019-04-23T13:10:09.937Z,14.99
2019-04-23T13:14:25.950Z,15.94
2019-04-23T13:18:31.545Z,15.29
2019-04-23T13:22:48.896Z,15.81
2019-04-23T13:26:44.796Z,15.91
2019-04-23T13:35:23.058Z,15.85
2019-04-23T13:39:21.251Z,15.93
2019-04-23T13:43:38.036Z,15.31
2019-04-23T13:47:48.065Z,15.07
2019-04-23T13:52:15.979Z,15.76
2019-04-23T13:55:53.461Z,15.76
2019-04-23T14:00:09.019Z,15.75
2019-04-23T14:04:36.711Z,15.77
2019-04-23T14:17:00.245Z,14.64
2019-04-23T14:21:08.569Z,15.03
2019-04-23T14:29:21.480Z,15.05
2019-04-23T14:33:37.525Z,15.07
2019-04-23T14:37:59.050Z,14.24
2019-04-23T14:41:54.153Z,14.46
2019-04-23T14:50:30.397Z,14.02
2019-04-23T14:54:34.344Z,13.98
2019-04-23T15:02:54.304Z,14.04
2019-04-23T15:07:02.548Z,13.77
2019-04-23T15:19:53.049Z,13.43
2019-04-23T15:32:19.972Z,13.10
2019-04-23T15:40:23.628Z,12.95
2019-04-23T15:44:28.201Z,12.78
2019-04-23T15:48:49.857Z,12.78
2019-04-23T15:52:58.212Z,12.68
2019-04-23T15:57:05.850Z,12.72
2019-04-23T16:01:31.886Z,12.59
2019-04-23T16:05:03.696Z,12.38
2019-04-23T16:09:36.166Z,12.30
2019-04-23T16:14:10.170Z,12.19
2019-04-23T16:18:22.079Z,12.18
2019-04-23T16:22:18.751Z,12.30
2019-04-23T16:26:29.850Z,12.18
2019-04-23T16:30:40.808Z,12.02
2019-04-23T16:34:54.429Z,12.11
2019-04-23T16:47:26.123Z,11.81
2019-04-23T16:51:32.843Z,11.65
2019-04-23T16:55:49.770Z,11.85
2019-04-23T17:00:07.390Z,11.74
2019-04-23T17:04:03.731Z,11.60
2019-04-23T17:08:36.022Z,11.35
2019-04-23T17:12:17.597Z,11.32
2019-04-23T17:20:47.482Z,11.43
2019-04-23T17:25:00.819Z,11.03
2019-04-23T17:29:12.279Z,11.16
2019-04-23T17:33:19.108Z,11.15
2019-04-23T17:37:29.987Z,11.15
2019-04-23T17:42:01.719Z,11.09
2019-04-23T17:50:26.904Z,11.15
2019-04-23T17:54:24.590Z,11.14
2019-04-23T17:58:28.882Z,11.07
2019-04-23T18:11:09.258Z,10.76
2019-04-23T18:15:15.672Z,10.80
2019-04-23T18:19:13.121Z,10.88
2019-04-23T18:23:42.874Z,10.77
2019-04-23T18:27:38.645Z,10.85
2019-04-23T18:32:13.116Z,10.63
2019-04-23T18:36:13.205Z,10.74
2019-04-23T18:40:28.569Z,10.83
2019-04-23T18:44:44.947Z,10.88
2019-04-23T18:52:58.513Z,10.77
2019-04-23T19:01:20.009Z,10.79
2019-04-23T19:05:55.014Z,11.02
2019-04-23T19:14:28.490Z,10.80
2019-04-23T19:18:31.990Z,10.86
2019-04-23T19:31:26.068Z,10.98
2019-04-23T19:39:43.233Z,10.70
2019-04-23T19:43:57.947Z,10.73
2019-04-23T19:48:13.434Z,10.92
2019-04-23T19:52:11.383Z,10.65
2019-04-23T19:56:29.068Z,10.53
2019-04-23T20:00:45.715Z,10.58
2019-04-23T20:12:59.042Z,10.70
2019-04-23T20:21:19.486Z,10.73
2019-04-23T20:34:40.259Z,10.63
2019-04-23T20:38:33.029Z,10.60
2019-04-23T20:42:40.797Z,10.63
2019-04-23T20:46:52.398Z,10.63
2019-04-23T20:50:50.732Z,10.58
2019-04-23T20:55:02.077Z,10.81
2019-04-23T21:03:39.114Z,10.67
2019-04-23T21:07:49.057Z,10.67
2019-04-23T21:11:53.194Z,10.54
2019-04-23T21:20:14.457Z,10.65
2019-04-23T21:24:07.203Z,10.55
2019-04-23T21:28:35.917Z,10.55
2019-04-23T21:32:42.179Z,10.53
2019-04-23T21:36:49.419Z,10.66
2019-04-23T21:45:40.803Z,10.71
2019-04-23T21:49:56.709Z,10.81
2019-04-23T21:53:51.707Z,10.79
2019-04-23T22:02:23.314Z,10.58
2019-04-23T22:06:30.614Z,10.58
2019-04-23T22:10:47.930Z,10.69
2019-04-23T22:14:45.326Z,10.55
2019-04-23T22:19:10.954Z,10.69
2019-04-23T22:27:09.781Z,10.63
2019-04-23T22:31:39.004Z,10.48
2019-04-23T22:35:37.833Z,10.43
2019-04-23T22:39:45.935Z,10.44
2019-04-23T22:44:05.113Z,10.64
2019-04-23T22:48:08.038Z,10.61
2019-04-23T22:52:22.992Z,10.65
2019-04-23T22:56:27.545Z,10.80
2019-04-23T23:00:39.040Z,10.53
2019-04-23T23:05:02.386Z,10.44
2019-04-23T23:09:10.470Z,10.43
2019-04-23T23:17:27.089Z,10.47
2019-04-23T23:21:38.493Z,10.43
2019-04-23T23:25:39.776Z,10.45
2019-04-23T23:29:58.098Z,10.46
2019-04-23T23:34:05.203Z,10.37
2019-04-23T23:38:16.685Z,10.43
2019-04-23T23:42:18.073Z,10.33
2019-04-23T23:50:55.067Z,10.39
2019-04-23T23:54:52.548Z,10.46
2019-04-23T23:59:03.800Z,10.34
